Free Trial

Oklo (OKLO) Institutional Ownership

Oklo logo
$68.41 -0.19 (-0.27%)
Closing price 03:59 PM Eastern
Extended Trading
$68.16 -0.25 (-0.37%)
As of 04:11 PM Eastern
Extended trading is trading that happens on electronic markets outside of regular trading hours. This is a fair market value extended hours price provided by Massive. Learn more.

Institutional Ownership Changes (13F Filings) for Oklo (NYSE:OKLO)

Current
Institutional Ownership
Percentage
85.03%
Number of
Institutional Buyers
(last 12 months)
574
Total
Institutional Inflows
(last 12 months)
$2.33B
Number of
Institutional Sellers
(last 12 months)
217
Total
Institutional Outflows
(last 12 months)
$700.61M
Get OKLO Insider Trade Alerts

Want to know when executives and insiders are buying or selling Oklo stock? Sign up for InsiderTrades.com's daily newsletter to get the latest insider transactions delivered to your inbox daily.

SMS is currently available in Australia, Belgium, Canada, France, Germany, Ireland, Italy, New Zealand, the Netherlands, Singapore, South Africa, Spain, Switzerland, the United Kingdom, and the United States. By entering your phone number and clicking the sign-up button, you agree to receive periodic text messages from MarketBeat at the phone number you submitted, including texts that may be sent using an automatic telephone dialing system. Message and data rates may apply. Message frequency will vary. Messages will consist of stock alerts, news stories, and partner advertisements/offers. Consent is not a condition of the purchase of any goods or services. Text HELP for help/customer support. Unsubscribe at any time by replying "STOP" to any text message that you receive from MarketBeat or by visiting our mailing preferences page. Read our full terms of service and privacy policy.
Skip Chart & View Institutional Buying and Selling Data

OKLO Institutional Buying and Selling by Quarter

Oklo Major Shareholders & Ownership History

Reporting DateMajor Shareholder NameShares HeldMarket Value% of PortfolioQuarterly Change in SharesOwnership in CompanyDetails
5/5/2026Geneos Wealth Management Inc.21,232$1.05M0.0%+8.7%0.012%
5/5/2026NFSG Corp21,964$1.09M0.2%+60.8%0.013%
5/5/2026Livforsakringsbolaget Skandia Omsesidigt4,448$221K0.0%+456.0%0.003%
5/5/2026Sanctuary Advisors LLC36,430$1.81M0.0%+2.3%0.021%
5/5/2026Sigma Planning Corp8,780$435K0.0%+22.4%0.005%
5/4/2026Principal Financial Group Inc.19,309$958K0.0%+5.0%0.011%
5/4/2026Tradewinds LLC.4,113$204K0.1%-64.8%0.002%
5/2/2026 Global Assets Advisory LLC9,570$475K0.1%N/A0.006%
5/2/2026 Arlington Capital Management Inc.49,490$2.45M1.4%N/A0.028%
5/2/2026 Diversify Wealth Management LLC5,885$292K0.0%+8.8%0.003%
5/1/2026 Kaizen Financial Strategies7,895$392K0.2%-4.2%0.005%
5/1/2026 Citizens Financial Group Inc. RI18,704$928K0.0%+1.0%0.011%
5/1/2026 Fifth Third Bancorp4,792$238K0.0%+18,330.8%0.003%
5/1/2026 Triton Wealth Management PLLC14,760$734K0.3%+1.3%0.008%
5/1/2026 KLCM Advisors Inc.5,000$248K0.0%-50.0%0.003%
4/30/2026 Costello Asset Management INC500$25K0.0%+66.7%0.000%
4/30/2026 Stiles Financial Services Inc13,772$683K0.2%+52.2%0.008%
4/30/2026 Kestra Advisory Services LLC47,770$2.37M0.0%+14.6%0.027%
4/30/2026 Money Concepts Capital Corp8,223$408K0.0%N/A0.005%
4/30/2026 Sumitomo Mitsui Trust Group Inc.206,946$10.26M0.0%-7.0%0.119%
4/30/2026 Resona Asset Management Co. Ltd.33,936$1.66M0.0%-1.8%0.020%
4/29/2026 Meitav Investment House Ltd.14,700$729K0.0%N/A0.008%
4/29/2026 Swedbank AB10,592$525K0.0%+3.4%0.006%
4/29/2026 Walser Wealth Management Company A Ltd Liability Co11,643$577K0.3%+284.3%0.007%
4/28/2026 Abel Hall LLC4,389$218K0.0%N/A0.003%
4/28/2026 Ascentis Independent Advisors663$33K0.0%N/A0.000%
4/28/2026 AdvisorShares Investments LLC8,680$430K0.1%N/A0.005%
4/28/2026 Praxis Investment Management Inc.4,114$204K0.0%+31.0%0.002%
4/28/2026 Private Wealth Partners LLC7,000$347K0.0%+16.7%0.004%
4/27/2026 PFG Investments LLC8,509$422K0.0%+76.8%0.005%
4/27/2026 Private Advisor Group LLC114,026$5.66M0.0%-22.7%0.066%
4/27/2026 Leonteq Securities AG43,773$2.17M0.1%+85.4%0.025%
4/27/2026 Fideuram Intesa Sanpaolo Private Banking S.P.A.60,146$2.98M0.1%+9,924.3%0.035%
4/25/2026 Strs Ohio22,800$1.13M0.0%+18.8%0.013%
4/24/2026 Essex LLC4,989$247K0.0%-6.8%0.003%
4/24/2026 Tcfg Wealth Management LLC5,915$293K0.1%-77.8%0.003%
4/24/2026 IFM Investors Pty Ltd22,109$1.10M0.0%+8.8%0.013%
4/23/2026 Inspire Investing LLC2,390$119K0.0%+40.5%0.001%
4/23/2026 Intrua Financial LLC10,600$526K0.1%-21.0%0.006%
4/23/2026 Apollon Wealth Management LLC5,967$296K0.0%+10.0%0.003%
4/23/2026 Pasadena Private Wealth LLC4,512$224K0.0%+16.1%0.003%
4/22/2026 Patriot Financial Group Insurance Agency LLC17,198$853K0.0%+189.3%0.010%
4/22/2026 Janney Montgomery Scott LLC21,356$1.06M0.0%+32.1%0.012%
4/22/2026 MRA Advisory Group24,145$1.20M0.5%+15.4%0.014%
4/22/2026 Pictet Asset Management Holding SA65,242$3.23M0.0%-49.1%0.038%
4/22/2026 Sterling Capital Management LLC3,294$163K0.0%-33.8%0.002%
4/20/2026 Kestra Private Wealth Services LLC36,406$1.81M0.0%+27.5%0.021%
4/20/2026 OP Asset Management Ltd12,237$607K0.0%N/A0.007%
4/20/2026 Banque Cantonale Vaudoise7,857$390K0.0%+56.4%0.005%
4/20/2026 Focused Wealth Management Inc4,079$202K0.0%N/A0.002%
4/18/2026 Vermillion Wealth Management Inc.3,500$174K0.1%+16.7%0.002%
4/17/2026 Sara Bay Financial7,950$394K0.1%+23.3%0.005%
4/17/2026 Wealth Management Partners LLC16,370$812K0.2%+10.5%0.009%
4/16/2026 SG Americas Securities LLC87,838$4.36M0.0%-27.3%0.051%
4/16/2026 E. Ohman J or Asset Management AB2,000$99K0.0%N/A0.001%
4/16/2026 BI Asset Management Fondsmaeglerselskab A S21,014$1.04M0.0%N/A0.012%
4/15/2026 Nations Financial Group Inc. IA ADV9,559$474K0.0%+7.4%0.006%
3/20/2026 Hsbc Holdings PLC112,372$8.06M0.0%+1,184.4%0.065%
3/17/2026Rockefeller Capital Management L.P.171,128$12.28M0.0%+427.1%0.110%
3/9/2026Corient Private Wealth LLC206,056$14.79M0.0%-7.9%0.132%
3/6/2026 Hsbc Holdings PLC112,372$8.06M0.0%+1,184.4%0.072%
3/4/2026SHP Wealth Management452$32K0.0%N/A0.000%
3/3/2026Tulsa Wealth Advisors INC4,632$332K0.1%N/A0.003%
3/3/2026Caitong International Asset Management Co. Ltd27,626$1.98M0.5%-31.1%0.018%
2/27/2026 Strategic Investment Solutions Inc. IL1,488$107K0.0%+45.5%0.001%
2/26/2026Banque Transatlantique SA985$71K0.0%-96.5%0.001%
2/25/2026Tempo Wealth LLC3,349$240K0.0%N/A0.002%
2/24/2026Pacer Advisors Inc.27,346$1.96M0.0%N/A0.018%
2/23/2026 Walser Wealth Management Company A Ltd Liability Co3,030$217K0.1%N/A0.002%
2/23/2026Virtu Financial LLC113,511$8.15M0.3%+21.7%0.073%
2/19/2026Mcguire Capital Advisors Inc.21,806$1.57M1.0%N/A0.014%
2/19/2026T. Rowe Price Investment Management Inc.160,458$11.52M0.0%-74.3%0.103%
2/19/2026Compound Planning Inc.45,238$3.25M0.1%-83.2%0.029%
2/19/2026Invesco Ltd.113,597$8.15M0.0%-48.1%0.073%
2/19/2026Corient Private Wealth LLC241,436$17.33M0.0%+7.9%0.155%
2/19/2026 CrossGen Wealth LLC628$45K0.0%N/A0.000%
2/18/2026Ameriflex Group Inc.1,280$92K0.0%-50.0%0.001%
2/18/2026Mercer Global Advisors Inc. ADV20,995$1.51M0.0%-27.7%0.013%
2/18/2026Delta Global Management LP30,747$2.21M0.1%N/A0.020%
2/18/2026EP Wealth Advisors LLC3,103$223K0.0%N/A0.002%
2/18/2026Mackenzie Financial Corp14,631$1.05M0.0%+183.4%0.009%
2/18/2026Obsidian Cio LLC1,985$142K0.2%-57.9%0.001%
2/18/2026Coastal Bridge Advisors LLC5,759$413K0.0%+10.3%0.004%
2/18/2026Empowered Funds LLC6,887$494K0.0%-22.5%0.004%
2/18/2026XTX Topco Ltd11,163$801K0.0%-17.5%0.007%
2/18/2026Wellington Management Group LLP254,300$18.25M0.0%-43.6%0.163%
2/18/2026Toronto Dominion Bank17,985$1.29M0.0%N/A0.012%
2/18/2026OLD Mission Capital LLC15,305$1.10M0.0%-4.9%0.010%
2/18/2026Oxford Asset Management LLP7,728$555K0.2%+142.7%0.005%
2/18/2026Millennium Management LLC50,992$3.66M0.0%-756.3%0.033%
2/18/2026Man Group plc336,841$24.17M0.0%N/A0.216%
2/18/2026IHT Wealth Management LLC5,738$412K0.0%+14.6%0.004%
2/18/2026 Inspire Investing LLC1,701$122K0.0%N/A0.001%
2/18/2026Investment Management Corp of Ontario7,497$538K0.0%N/A0.005%
2/18/2026Janus Henderson Group PLC3,600$258K0.0%-92.0%0.002%
2/18/2026Engineers Gate Manager LP10,809$776K0.0%+457.7%0.007%
2/18/2026Bridgeway Capital Management LLC20,450$1.47M0.0%-25.8%0.013%
2/18/2026Alight Capital Management LP5,000$359K0.1%-75.6%0.003%
2/17/2026Guggenheim Capital LLC5,556$399K0.0%-17.3%0.004%
2/17/2026Schonfeld Strategic Advisors LLC35,247$2.53M0.0%+474.1%0.023%


OKLO Institutional Ownership - Frequently Asked Questions

Who are the largest shareholders of OKLO shares?

During the previous two years, 677 institutional investors and hedge funds held shares of Oklo. The most heavily invested institutionals were Vanguard Group Inc. ($835.11M), MIRAE ASSET GLOBAL ETFS HOLDINGS Ltd. ($792.82M), Van ECK Associates Corp ($283.90M), State Street Corp ($219.60M), Geode Capital Management LLC ($201.67M), Morgan Stanley ($135.20M), and Data Collective IV GP LLC ($112.04M).Learn more on Oklo's institutional investors.

What percentage of Oklo's stock is owned by institutional investors?

85.03% of Oklo's stock is owned by institutional investors. Learn more on OKLO's institutional investor holdings.

Which institutional investors have been buying Oklo's stock?

Of the 632 institutional investors that purchased Oklo's stock in the last 24 months, the following investors and hedge funds have bought the highest volume of shares: Vanguard Group Inc. ($5.07M), Van ECK Associates Corp ($3.62M), MIRAE ASSET GLOBAL ETFS HOLDINGS Ltd. ($3.04M), State Street Corp ($2.69M), HITE Hedge Asset Management LLC ($2.44M), Geode Capital Management LLC ($2.41M), and Norges Bank ($1.03M).

How much institutional buying is happening at Oklo?

Institutional investors have bought a total of 30,729,591 shares in the last 24 months. This purchase volume represents approximately $2.33B in transactions.

Which of Oklo's major shareholders have been selling company stock?

Of the 217 institutional investors that sold Oklo's stock in the last 24 months, the following investors and hedge funds have sold the highest volume of shares: Alyeska Investment Group L.P. ($1.06M), T. Rowe Price Investment Management Inc. ($1.03M), Compound Planning Inc. ($816.64K), MIRAE ASSET GLOBAL ETFS HOLDINGS Ltd. ($795.89K), JAT Capital Mgmt LP ($573.21K), Tidal Investments LLC ($552.84K), and Ghisallo Capital Management LLC ($550K).

How much institutional selling is happening at Oklo?

Institutional investors have sold a total of 10,580,396 shares in the last 24 months. This volume of shares sold represents approximately $700.61M in transactions.



This page (NYSE:OKLO) was last updated on 5/5/2026 by MarketBeat.com Staff.
From Our Partners